createdAt,value
2022-08-25T00:00:20.518Z,17.38
2022-08-25T00:02:55.152Z,17.34
2022-08-25T00:05:27.815Z,17.29
2022-08-25T00:07:57.210Z,17.27
2022-08-25T00:10:25.077Z,17.29
2022-08-25T00:12:54.255Z,17.26
2022-08-25T00:15:22.810Z,17.28
2022-08-25T00:17:50.795Z,17.23
2022-08-25T00:20:18.791Z,17.30
2022-08-25T00:22:46.542Z,17.23
2022-08-25T00:25:14.345Z,17.20
2022-08-25T00:27:43.665Z,17.17
2022-08-25T00:30:16.731Z,17.14
2022-08-25T00:32:55.096Z,17.14
2022-08-25T00:35:26.393Z,17.15
2022-08-25T00:37:54.172Z,17.11
2022-08-25T00:40:23.485Z,17.14
2022-08-25T00:42:51.281Z,17.08
2022-08-25T00:45:20.404Z,17.06
2022-08-25T00:47:48.449Z,17.06
2022-08-25T00:50:17.288Z,17.03
2022-08-25T00:52:49.189Z,17.00
2022-08-25T00:55:21.314Z,16.97
2022-08-25T00:57:57.759Z,16.93
2022-08-25T01:00:31.060Z,16.93
2022-08-25T01:02:59.343Z,16.94
2022-08-25T01:05:28.694Z,16.91
2022-08-25T01:08:00.274Z,16.95
2022-08-25T01:10:28.780Z,16.87
2022-08-25T01:13:03.919Z,16.78
2022-08-25T01:15:34.393Z,16.75
2022-08-25T01:18:05.970Z,16.71
2022-08-25T01:20:34.652Z,16.64
2022-08-25T01:23:03.794Z,16.64
2022-08-25T01:25:40.653Z,16.50
2022-08-25T01:28:08.437Z,16.48
2022-08-25T01:30:37.582Z,16.40
2022-08-25T01:33:05.979Z,16.40
2022-08-25T01:35:34.256Z,16.43
2022-08-25T01:38:05.931Z,16.47
2022-08-25T01:40:35.651Z,16.52
2022-08-25T01:43:13.021Z,16.52
2022-08-25T01:45:44.150Z,16.55
2022-08-25T01:48:13.410Z,16.54
2022-08-25T01:50:42.040Z,16.47
2022-08-25T01:53:15.457Z,16.45
2022-08-25T01:55:52.935Z,16.44
2022-08-25T01:58:23.727Z,16.49
2022-08-25T02:00:55.774Z,16.49
2022-08-25T02:03:24.850Z,16.39
2022-08-25T02:05:53.340Z,16.44
2022-08-25T02:08:23.335Z,16.46
2022-08-25T02:10:51.421Z,16.46
2022-08-25T02:13:20.764Z,16.44
2022-08-25T02:15:56.410Z,16.42
2022-08-25T02:18:25.132Z,16.36
2022-08-25T02:20:54.238Z,16.26
2022-08-25T02:23:23.438Z,16.21
2022-08-25T02:25:51.402Z,16.18
2022-08-25T02:28:19.210Z,16.20
2022-08-25T02:30:48.078Z,16.17
2022-08-25T02:33:15.990Z,16.17
2022-08-25T02:35:43.687Z,16.12
2022-08-25T02:38:11.515Z,16.05
2022-08-25T02:40:40.745Z,15.97
2022-08-25T02:43:08.559Z,15.96
2022-08-25T02:45:36.750Z,15.88
2022-08-25T02:48:05.022Z,15.89
2022-08-25T02:50:33.302Z,15.80
2022-08-25T02:53:01.070Z,15.82
2022-08-25T02:55:28.890Z,15.83
2022-08-25T02:57:57.981Z,15.84
2022-08-25T03:00:26.360Z,15.81
2022-08-25T03:02:54.278Z,15.81
2022-08-25T03:05:22.362Z,15.81
2022-08-25T03:07:50.091Z,15.78
2022-08-25T03:10:20.798Z,15.74
2022-08-25T03:12:48.664Z,15.78
2022-08-25T03:15:18.424Z,15.85
2022-08-25T03:17:46.791Z,15.84
2022-08-25T03:20:15.349Z,15.81
2022-08-25T03:22:43.320Z,15.74
2022-08-25T03:25:29.147Z,15.66
2022-08-25T03:27:56.935Z,15.64
2022-08-25T03:30:26.696Z,15.62
2022-08-25T03:32:54.823Z,15.62
2022-08-25T03:35:22.750Z,15.56
2022-08-25T03:37:51.112Z,15.56
2022-08-25T03:40:18.947Z,15.60
2022-08-25T03:42:47.751Z,15.60
2022-08-25T03:45:17.747Z,15.67
2022-08-25T03:47:49.323Z,15.64
2022-08-25T03:50:18.937Z,15.62
2022-08-25T03:52:51.083Z,15.66
2022-08-25T03:55:19.123Z,15.69
2022-08-25T03:57:46.834Z,15.73
2022-08-25T04:00:15.050Z,15.79
2022-08-25T04:02:43.783Z,15.78
2022-08-25T04:05:13.556Z,15.80
2022-08-25T04:07:43.755Z,15.86
2022-08-25T04:10:12.429Z,15.82
2022-08-25T04:12:40.350Z,15.76
2022-08-25T04:15:10.586Z,15.81
2022-08-25T04:17:40.742Z,15.75
2022-08-25T04:20:11.413Z,15.77
2022-08-25T04:22:45.112Z,15.91
2022-08-25T04:25:13.439Z,15.95
2022-08-25T04:27:41.519Z,15.99
2022-08-25T04:30:10.784Z,16.06
2022-08-25T04:32:38.616Z,16.11
2022-08-25T04:35:07.501Z,16.17
2022-08-25T04:37:35.426Z,16.19
2022-08-25T04:40:05.719Z,16.23
2022-08-25T04:42:33.918Z,16.24
2022-08-25T04:45:03.900Z,16.20
2022-08-25T04:47:31.708Z,16.23
2022-08-25T04:49:59.451Z,16.23
2022-08-25T04:52:27.192Z,16.23
2022-08-25T04:54:55.435Z,16.25
2022-08-25T04:57:24.544Z,16.28
2022-08-25T04:59:52.454Z,16.30
2022-08-25T05:02:20.556Z,16.35
2022-08-25T05:04:48.361Z,16.41
2022-08-25T05:07:16.149Z,16.41
2022-08-25T05:09:43.975Z,16.43
2022-08-25T05:12:11.861Z,16.45
2022-08-25T05:14:41.760Z,16.45
2022-08-25T05:17:09.486Z,16.50
2022-08-25T05:19:37.253Z,16.55
2022-08-25T05:22:05.109Z,16.62
2022-08-25T05:24:32.885Z,16.67
2022-08-25T05:27:00.698Z,16.70
2022-08-25T05:29:28.484Z,16.76
2022-08-25T05:31:57.734Z,16.79
2022-08-25T05:34:25.779Z,16.82
2022-08-25T05:36:54.492Z,16.87
2022-08-25T05:39:22.280Z,16.93
2022-08-25T05:41:50.094Z,16.98
2022-08-25T05:44:21.168Z,17.02
2022-08-25T05:46:49.918Z,17.08
2022-08-25T05:49:19.557Z,17.14
2022-08-25T05:51:47.322Z,17.21
2022-08-25T05:54:15.117Z,17.25
2022-08-25T05:56:42.933Z,17.29
2022-08-25T05:59:10.729Z,17.33
2022-08-25T06:01:56.102Z,17.37
2022-08-25T06:04:25.523Z,17.42
2022-08-25T06:06:54.764Z,17.47
2022-08-25T06:09:23.059Z,17.51
2022-08-25T06:11:54.639Z,17.57
2022-08-25T06:14:23.863Z,17.62
2022-08-25T06:16:52.123Z,17.69
2022-08-25T06:19:21.140Z,17.76
2022-08-25T06:21:50.744Z,17.79
2022-08-25T06:24:18.450Z,17.84
2022-08-25T06:26:46.330Z,17.90
2022-08-25T06:29:14.930Z,17.97
2022-08-25T06:31:43.418Z,18.05
2022-08-25T06:34:12.306Z,18.17
2022-08-25T06:36:40.293Z,18.22
2022-08-25T06:39:10.599Z,18.32
2022-08-25T06:41:39.109Z,18.41
2022-08-25T06:44:07.199Z,18.48
2022-08-25T06:46:37.112Z,18.59
2022-08-25T06:49:06.043Z,18.69
2022-08-25T06:51:36.001Z,18.69
2022-08-25T06:54:05.113Z,18.78
2022-08-25T06:56:35.144Z,18.90
2022-08-25T06:59:03.710Z,18.95
2022-08-25T07:01:32.119Z,19.00
2022-08-25T07:04:04.869Z,19.08
2022-08-25T07:06:36.024Z,19.15
2022-08-25T07:09:06.205Z,19.23
2022-08-25T07:11:35.900Z,19.34
2022-08-25T07:14:06.807Z,19.43
2022-08-25T07:16:35.054Z,19.46
2022-08-25T07:19:03.203Z,19.54
2022-08-25T07:21:35.555Z,19.59
2022-08-25T07:24:06.891Z,19.67
2022-08-25T07:26:38.609Z,19.78
2022-08-25T07:29:10.424Z,19.82
2022-08-25T07:31:38.356Z,19.87
2022-08-25T07:34:24.277Z,19.97
2022-08-25T07:36:53.542Z,20.08
2022-08-25T07:39:21.991Z,20.18
2022-08-25T07:41:52.436Z,20.25
2022-08-25T07:44:22.582Z,20.35
2022-08-25T07:46:50.927Z,20.44
2022-08-25T07:49:23.204Z,20.52
2022-08-25T07:52:04.390Z,20.63
2022-08-25T07:54:34.528Z,20.71
2022-08-25T07:57:04.384Z,20.79
2022-08-25T07:59:39.231Z,20.79
2022-08-25T08:02:09.265Z,20.80
2022-08-25T08:04:46.238Z,20.89
2022-08-25T08:07:14.063Z,20.99
2022-08-25T08:09:41.777Z,21.09
2022-08-25T08:12:11.896Z,21.29
2022-08-25T08:14:44.993Z,21.32
2022-08-25T08:17:14.335Z,21.38
2022-08-25T08:19:45.291Z,21.56
2022-08-25T08:22:15.587Z,21.63
2022-08-25T08:24:54.787Z,21.75
2022-08-25T08:27:25.684Z,21.86
2022-08-25T08:29:53.659Z,21.93
2022-08-25T08:32:25.220Z,22.04
2022-08-25T08:35:03.372Z,22.15
2022-08-25T08:37:31.368Z,22.29
2022-08-25T08:40:01.485Z,22.29
2022-08-25T08:42:57.679Z,22.39
2022-08-25T08:45:40.560Z,22.51
2022-08-25T08:48:44.248Z,22.70
2022-08-25T08:51:22.924Z,22.83
2022-08-25T08:53:57.391Z,22.85
2022-08-25T08:56:30.850Z,22.99
2022-08-25T08:59:06.363Z,23.20
2022-08-25T09:01:36.669Z,23.26
2022-08-25T09:04:10.321Z,23.42
2022-08-25T09:06:42.544Z,23.55
2022-08-25T09:09:15.300Z,23.67
2022-08-25T09:11:59.207Z,23.69
2022-08-25T09:14:40.786Z,23.78
2022-08-25T09:17:21.551Z,23.98
2022-08-25T09:20:18.368Z,24.15
2022-08-25T09:23:00.147Z,24.39
2022-08-25T09:25:54.409Z,24.48
2022-08-25T09:28:29.699Z,24.54
2022-08-25T09:31:02.526Z,24.75
2022-08-25T09:33:35.413Z,24.90
2022-08-25T09:36:06.192Z,25.04
2022-08-25T09:38:34.760Z,25.24
2022-08-25T09:41:03.204Z,25.41
2022-08-25T09:43:33.689Z,25.61
2022-08-25T09:46:10.365Z,25.80
2022-08-25T09:48:46.590Z,26.02
2022-08-25T09:51:24.242Z,26.08
2022-08-25T09:53:56.619Z,26.35
2022-08-25T09:56:27.461Z,26.60
2022-08-25T09:59:03.040Z,26.75
2022-08-25T10:01:35.014Z,26.88
2022-08-25T10:04:05.670Z,27.00
2022-08-25T10:06:43.699Z,27.08
2022-08-25T10:09:29.354Z,27.24
2022-08-25T10:12:01.049Z,27.64
2022-08-25T10:14:36.227Z,27.85
2022-08-25T10:17:24.736Z,28.02
2022-08-25T10:20:13.104Z,28.22
2022-08-25T10:22:42.843Z,28.36
2022-08-25T10:25:13.308Z,28.63
2022-08-25T10:28:11.343Z,28.72
2022-08-25T10:30:51.542Z,29.10
2022-08-25T10:33:31.674Z,29.38
2022-08-25T10:36:06.506Z,29.59
2022-08-25T10:38:42.924Z,29.82
2022-08-25T10:41:27.371Z,30.07
2022-08-25T10:44:03.636Z,30.17
2022-08-25T10:46:42.042Z,30.45
2022-08-25T10:49:19.370Z,30.59
2022-08-25T10:51:56.771Z,30.74
2022-08-25T10:54:38.398Z,30.80
2022-08-25T10:57:16.811Z,30.90
2022-08-25T10:59:58.316Z,31.11
2022-08-25T11:02:50.410Z,31.45
2022-08-25T11:05:27.227Z,31.57
2022-08-25T11:08:02.295Z,31.85
2022-08-25T11:10:40.604Z,31.73
2022-08-25T11:13:15.550Z,31.77
2022-08-25T11:16:13.664Z,31.93
2022-08-25T11:18:47.610Z,31.93
2022-08-25T11:21:24.368Z,32.07
2022-08-25T11:24:00.149Z,32.19
2022-08-25T11:26:37.037Z,32.34
2022-08-25T11:29:11.593Z,32.50
2022-08-25T11:31:44.119Z,32.40
2022-08-25T11:34:15.885Z,32.59
2022-08-25T11:36:53.523Z,32.40
2022-08-25T11:39:40.349Z,32.47
2022-08-25T11:42:20.461Z,32.39
2022-08-25T11:45:02.390Z,32.54
2022-08-25T11:47:58.450Z,32.50
2022-08-25T11:50:31.215Z,32.58
2022-08-25T11:53:23.716Z,32.62
2022-08-25T11:56:02.291Z,32.63
2022-08-25T11:58:35.536Z,32.55
2022-08-25T12:01:06.936Z,32.86
2022-08-25T12:03:54.073Z,32.61
2022-08-25T12:06:29.411Z,32.85
2022-08-25T12:09:22.909Z,32.93
2022-08-25T12:11:58.841Z,33.01
2022-08-25T12:14:47.939Z,32.63
2022-08-25T12:17:25.654Z,32.74
2022-08-25T12:19:59.756Z,32.92
2022-08-25T12:22:58.411Z,32.34
2022-08-25T12:25:45.507Z,31.93
2022-08-25T12:28:41.906Z,31.48
2022-08-25T12:31:23.925Z,31.42
2022-08-25T12:34:09.259Z,31.84
2022-08-25T12:36:40.715Z,32.17
2022-08-25T12:39:17.822Z,32.55
2022-08-25T12:41:57.837Z,32.09
2022-08-25T12:44:40.096Z,32.06
2022-08-25T12:47:14.394Z,32.24
2022-08-25T12:49:42.624Z,32.08
2022-08-25T12:52:16.930Z,32.04
2022-08-25T12:54:49.675Z,32.35
2022-08-25T12:57:41.190Z,32.50
2022-08-25T13:00:18.482Z,32.14
2022-08-25T13:03:26.328Z,31.28
2022-08-25T13:06:09.317Z,31.04
2022-08-25T13:09:08.259Z,31.02
2022-08-25T13:11:43.187Z,30.77
2022-08-25T13:14:20.217Z,30.87
2022-08-25T13:16:55.591Z,30.95
2022-08-25T13:19:24.257Z,30.76
2022-08-25T13:21:54.613Z,30.43
2022-08-25T13:24:26.655Z,30.89
2022-08-25T13:26:57.098Z,31.29
2022-08-25T13:29:29.344Z,31.70
2022-08-25T13:32:09.302Z,31.93
2022-08-25T13:34:42.921Z,32.35
2022-08-25T13:37:33.184Z,32.47
2022-08-25T13:40:17.776Z,32.53
2022-08-25T13:42:54.435Z,32.71
2022-08-25T13:45:27.626Z,32.98
2022-08-25T13:47:56.847Z,33.30
2022-08-25T13:50:33.250Z,33.54
2022-08-25T13:53:04.779Z,33.61
2022-08-25T13:55:38.125Z,33.68
2022-08-25T13:58:24.326Z,33.55
2022-08-25T14:01:23.217Z,32.97
2022-08-25T14:04:01.135Z,32.66
2022-08-25T14:06:29.537Z,32.59
2022-08-25T14:09:16.024Z,32.61
2022-08-25T14:11:48.042Z,32.72
2022-08-25T14:14:32.327Z,32.64
2022-08-25T14:17:22.286Z,32.65
2022-08-25T14:19:56.252Z,32.46
2022-08-25T14:22:24.204Z,32.47
2022-08-25T14:24:54.275Z,32.30
2022-08-25T14:27:22.187Z,32.26
2022-08-25T14:29:52.847Z,32.23
2022-08-25T14:32:22.730Z,32.07
2022-08-25T14:34:50.486Z,31.97
2022-08-25T14:37:20.612Z,31.79
2022-08-25T14:39:54.582Z,31.85
2022-08-25T14:42:22.659Z,31.65
2022-08-25T14:44:53.209Z,31.56
2022-08-25T14:47:22.403Z,31.42
2022-08-25T14:49:51.968Z,31.30
2022-08-25T14:52:22.710Z,31.13
2022-08-25T14:54:50.687Z,31.05
2022-08-25T14:57:42.587Z,31.10
2022-08-25T15:00:12.122Z,31.12
2022-08-25T15:02:44.744Z,31.14
2022-08-25T15:05:17.169Z,31.07
2022-08-25T15:08:05.630Z,31.03
2022-08-25T15:10:35.203Z,30.96
2022-08-25T15:13:02.991Z,31.00
2022-08-25T15:15:32.883Z,30.73
2022-08-25T15:18:02.338Z,30.56
2022-08-25T15:20:30.338Z,30.35
2022-08-25T15:22:58.575Z,29.99
2022-08-25T15:25:26.615Z,29.80
2022-08-25T15:27:55.203Z,29.81
2022-08-25T15:30:22.939Z,29.97
2022-08-25T15:32:59.216Z,30.07
2022-08-25T15:35:29.078Z,30.13
2022-08-25T15:37:57.480Z,30.13
2022-08-25T15:40:25.601Z,30.07
2022-08-25T15:42:53.408Z,29.99
2022-08-25T15:45:23.639Z,29.92
2022-08-25T15:47:54.084Z,29.78
2022-08-25T15:50:26.039Z,29.73
2022-08-25T15:52:55.432Z,29.56
2022-08-25T15:55:23.187Z,29.52
2022-08-25T15:57:51.408Z,29.56
2022-08-25T16:00:21.521Z,29.53
2022-08-25T16:02:49.629Z,29.56
2022-08-25T16:05:17.457Z,29.55
2022-08-25T16:07:51.583Z,29.53
2022-08-25T16:10:21.299Z,29.39
2022-08-25T16:12:49.743Z,29.39
2022-08-25T16:15:17.515Z,29.27
2022-08-25T16:17:50.559Z,29.10
2022-08-25T16:20:20.752Z,29.03
2022-08-25T16:22:51.646Z,29.01
2022-08-25T16:25:21.985Z,28.94
2022-08-25T16:27:49.790Z,28.84
2022-08-25T16:30:17.895Z,28.79
2022-08-25T16:32:46.524Z,28.73
2022-08-25T16:35:14.942Z,28.54
2022-08-25T16:37:42.841Z,28.40
2022-08-25T16:40:13.595Z,28.26
2022-08-25T16:42:45.043Z,28.23
2022-08-25T16:45:12.885Z,28.15
2022-08-25T16:47:42.577Z,28.06
2022-08-25T16:50:11.579Z,27.95
2022-08-25T16:52:58.248Z,27.87
2022-08-25T16:55:39.183Z,27.81
2022-08-25T16:58:12.633Z,27.75
2022-08-25T17:00:41.669Z,27.68
2022-08-25T17:03:12.890Z,27.65
2022-08-25T17:05:43.296Z,27.59
2022-08-25T17:08:29.454Z,27.53
2022-08-25T17:11:06.429Z,27.48
2022-08-25T17:13:36.826Z,27.43
2022-08-25T17:16:05.277Z,27.38
2022-08-25T17:18:33.729Z,27.33
2022-08-25T17:21:03.903Z,27.27
2022-08-25T17:23:33.074Z,27.16
2022-08-25T17:26:02.384Z,27.12
2022-08-25T17:28:30.490Z,27.01
2022-08-25T17:30:59.844Z,26.94
2022-08-25T17:33:28.162Z,26.81
2022-08-25T17:35:57.926Z,26.77
2022-08-25T17:38:28.439Z,26.69
2022-08-25T17:40:58.259Z,26.65
2022-08-25T17:43:27.684Z,26.58
2022-08-25T17:45:57.481Z,26.52
2022-08-25T17:48:26.949Z,26.36
2022-08-25T17:50:55.587Z,26.26
2022-08-25T17:53:23.387Z,26.17
2022-08-25T17:56:00.253Z,26.11
2022-08-25T17:58:29.724Z,26.02
2022-08-25T18:00:58.290Z,25.86
2022-08-25T18:03:28.319Z,25.80
2022-08-25T18:05:56.521Z,25.77
2022-08-25T18:08:29.237Z,25.70
2022-08-25T18:11:03.287Z,25.51
2022-08-25T18:13:31.496Z,25.41
2022-08-25T18:15:59.360Z,25.37
2022-08-25T18:18:28.763Z,25.21
2022-08-25T18:20:56.754Z,25.02
2022-08-25T18:23:24.911Z,24.92
2022-08-25T18:25:53.179Z,24.92
2022-08-25T18:28:29.035Z,24.87
2022-08-25T18:30:57.157Z,24.75
2022-08-25T18:33:25.627Z,24.65
2022-08-25T18:35:59.781Z,24.54
2022-08-25T18:38:44.819Z,24.40
2022-08-25T18:41:13.359Z,24.27
2022-08-25T18:43:41.185Z,24.17
2022-08-25T18:46:09.094Z,24.07
2022-08-25T18:48:38.188Z,23.90
2022-08-25T18:51:07.462Z,23.84
2022-08-25T18:53:50.099Z,23.79
2022-08-25T18:56:19.170Z,23.67
2022-08-25T18:58:47.573Z,23.51
2022-08-25T19:01:15.663Z,23.27
2022-08-25T19:03:44.036Z,23.27
2022-08-25T19:06:13.415Z,23.22
2022-08-25T19:08:43.176Z,23.05
2022-08-25T19:11:11.151Z,23.06
2022-08-25T19:13:40.817Z,22.97
2022-08-25T19:16:13.918Z,22.87
2022-08-25T19:18:47.413Z,22.77
2022-08-25T19:21:20.508Z,22.63
2022-08-25T19:23:50.942Z,22.63
2022-08-25T19:26:20.858Z,22.59
2022-08-25T19:28:49.686Z,22.55
2022-08-25T19:31:18.262Z,22.51
2022-08-25T19:33:46.916Z,22.45
2022-08-25T19:36:17.849Z,22.34
2022-08-25T19:38:49.303Z,22.23
2022-08-25T19:41:19.850Z,22.10
2022-08-25T19:43:56.262Z,22.14
2022-08-25T19:46:25.780Z,22.08
2022-08-25T19:49:07.162Z,22.01
2022-08-25T19:51:38.053Z,22.05
2022-08-25T19:54:09.250Z,21.97
2022-08-25T19:56:53.695Z,21.84
2022-08-25T19:59:22.738Z,21.85
2022-08-25T20:01:53.390Z,21.68
2022-08-25T20:04:24.156Z,21.65
2022-08-25T20:06:55.324Z,21.63
2022-08-25T20:09:38.859Z,21.61
2022-08-25T20:12:10.253Z,21.59
2022-08-25T20:14:38.661Z,21.56
2022-08-25T20:17:14.457Z,21.47
2022-08-25T20:19:52.415Z,21.41
2022-08-25T20:22:25.840Z,21.45
2022-08-25T20:24:55.910Z,21.44
2022-08-25T20:27:29.184Z,21.36
2022-08-25T20:29:57.041Z,21.31
2022-08-25T20:32:25.056Z,21.31
2022-08-25T20:34:55.822Z,21.31
2022-08-25T20:37:25.750Z,21.28
2022-08-25T20:39:54.871Z,21.29
2022-08-25T20:42:22.908Z,21.25
2022-08-25T20:44:50.691Z,21.25
2022-08-25T20:47:20.601Z,21.25
2022-08-25T20:49:50.324Z,21.21
2022-08-25T20:52:19.624Z,21.20
2022-08-25T20:54:49.577Z,21.17
2022-08-25T20:57:19.213Z,21.06
2022-08-25T20:59:54.581Z,21.03
2022-08-25T21:02:22.901Z,21.01
2022-08-25T21:04:52.460Z,20.99
2022-08-25T21:07:21.225Z,20.94
2022-08-25T21:09:53.451Z,20.89
2022-08-25T21:12:22.124Z,20.93
2022-08-25T21:14:50.672Z,20.94
2022-08-25T21:17:19.258Z,20.90
2022-08-25T21:22:16.860Z,20.98
2022-08-25T21:24:45.372Z,20.93
2022-08-25T21:27:14.709Z,20.83
2022-08-25T21:29:44.531Z,20.80
2022-08-25T21:32:22.176Z,20.75
2022-08-25T21:34:52.892Z,20.69
2022-08-25T21:37:21.472Z,20.67
2022-08-25T21:39:49.410Z,20.64
2022-08-25T21:42:18.891Z,20.60
2022-08-25T21:44:46.713Z,20.69
2022-08-25T21:47:14.572Z,20.67
2022-08-25T21:49:42.589Z,20.70
2022-08-25T21:52:10.843Z,20.73
2022-08-25T21:54:39.018Z,20.73
2022-08-25T21:57:07.769Z,20.72
2022-08-25T21:59:40.242Z,20.65
2022-08-25T22:02:11.165Z,20.56
2022-08-25T22:04:40.102Z,20.57
2022-08-25T22:07:08.624Z,20.53
2022-08-25T22:09:36.983Z,20.49
2022-08-25T22:12:05.819Z,20.46
2022-08-25T22:14:33.854Z,20.46
2022-08-25T22:17:03.888Z,20.44
2022-08-25T22:19:31.760Z,20.42
2022-08-25T22:22:01.538Z,20.29
2022-08-25T22:24:29.325Z,20.30
2022-08-25T22:26:57.264Z,20.27
2022-08-25T22:29:26.691Z,20.24
2022-08-25T22:31:59.332Z,20.23
2022-08-25T22:34:33.133Z,20.20
2022-08-25T22:37:01.368Z,20.18
2022-08-25T22:39:29.772Z,20.18
2022-08-25T22:41:57.657Z,20.19
2022-08-25T22:44:27.148Z,20.18
2022-08-25T22:46:55.000Z,20.24
2022-08-25T22:49:22.896Z,20.18
2022-08-25T22:51:55.157Z,20.18
2022-08-25T22:54:25.451Z,20.20
2022-08-25T22:56:53.985Z,20.21
2022-08-25T22:59:22.172Z,20.19
2022-08-25T23:01:52.352Z,20.01
2022-08-25T23:04:20.640Z,19.95
2022-08-25T23:06:48.822Z,19.96
2022-08-25T23:09:18.711Z,19.96
2022-08-25T23:11:46.548Z,19.98
2022-08-25T23:14:14.440Z,19.97
2022-08-25T23:16:44.148Z,19.92
2022-08-25T23:19:13.996Z,19.95
2022-08-25T23:22:02.169Z,19.91
2022-08-25T23:24:32.191Z,19.90
2022-08-25T23:27:01.924Z,19.88
2022-08-25T23:29:30.806Z,19.81
2022-08-25T23:31:59.654Z,19.84
2022-08-25T23:34:28.701Z,19.86
2022-08-25T23:36:56.924Z,19.83
2022-08-25T23:39:25.422Z,19.84
2022-08-25T23:41:54.792Z,19.83
2022-08-25T23:44:24.538Z,19.79
2022-08-25T23:46:53.990Z,19.83
2022-08-25T23:49:23.968Z,19.79
2022-08-25T23:51:53.339Z,19.73
2022-08-25T23:54:21.732Z,19.64
2022-08-25T23:57:00.378Z,19.54
2022-08-25T23:59:29.656Z,19.49
